createdAt,value
2017-08-12T00:00:49.703Z,25.01
2017-08-12T00:02:02.169Z,25.13
2017-08-12T00:03:14.861Z,25.01
2017-08-12T00:04:27.315Z,25.02
2017-08-12T00:05:43.335Z,25.01
2017-08-12T00:06:55.845Z,25.01
2017-08-12T00:08:08.318Z,25.02
2017-08-12T00:09:20.662Z,25.02
2017-08-12T00:10:32.919Z,25.02
2017-08-12T00:11:45.233Z,25.02
2017-08-12T00:12:57.433Z,25.02
2017-08-12T00:14:12.499Z,25.02
2017-08-12T00:15:28.211Z,25.02
2017-08-12T00:16:40.359Z,25.02
2017-08-12T00:17:52.905Z,25.02
2017-08-12T00:19:05.314Z,25.02
2017-08-12T00:20:17.595Z,25.02
2017-08-12T00:21:29.778Z,25.02
2017-08-12T00:22:42.168Z,25.02
2017-08-12T00:23:54.523Z,25.02
2017-08-12T00:25:07.171Z,25.02
2017-08-12T00:26:19.623Z,25.02
2017-08-12T00:27:31.813Z,24.91
2017-08-12T00:28:44.237Z,25.02
2017-08-12T00:29:56.699Z,25.02
2017-08-12T00:31:09.072Z,24.91
2017-08-12T00:32:21.238Z,25.02
2017-08-12T00:33:33.501Z,24.91
2017-08-12T00:34:46.036Z,24.91
2017-08-12T00:36:02.003Z,24.91
2017-08-12T00:37:14.199Z,24.91
2017-08-12T00:38:26.806Z,24.91
2017-08-12T00:39:38.985Z,24.91
2017-08-12T00:40:51.242Z,24.91
2017-08-12T00:42:03.821Z,24.91
2017-08-12T00:43:16.341Z,24.91
2017-08-12T00:44:28.707Z,24.91
2017-08-12T00:45:44.692Z,24.91
2017-08-12T00:46:57.020Z,24.91
2017-08-12T00:48:09.460Z,24.91
2017-08-12T00:49:21.676Z,24.91
2017-08-12T00:50:34.173Z,24.91
2017-08-12T00:51:46.701Z,24.91
2017-08-12T00:52:59.164Z,24.80
2017-08-12T00:54:11.568Z,24.80
2017-08-12T00:55:27.119Z,24.80
2017-08-12T00:56:39.615Z,24.91
2017-08-12T00:57:51.885Z,24.91
2017-08-12T00:59:04.317Z,24.80
2017-08-12T01:00:16.535Z,24.80
2017-08-12T01:01:28.850Z,24.80
2017-08-12T01:02:41.235Z,24.80
2017-08-12T01:03:53.480Z,24.80
2017-08-12T01:05:06.129Z,24.80
2017-08-12T01:06:18.501Z,24.80
2017-08-12T01:07:30.987Z,24.80
2017-08-12T01:08:43.129Z,24.80
2017-08-12T01:09:55.516Z,24.80
2017-08-12T01:11:07.702Z,24.80
2017-08-12T01:12:19.946Z,24.80
2017-08-12T01:13:32.320Z,24.80
2017-08-12T01:14:44.465Z,24.80
2017-08-12T01:16:00.207Z,24.80
2017-08-12T01:17:12.548Z,24.80
2017-08-12T01:18:24.768Z,24.80
2017-08-12T01:19:37.232Z,24.80
2017-08-12T01:20:49.527Z,24.80
2017-08-12T01:22:01.817Z,24.80
2017-08-12T01:23:13.973Z,24.69
2017-08-12T01:24:26.463Z,24.80
2017-08-12T01:25:42.692Z,24.80
2017-08-12T01:26:54.904Z,24.80
2017-08-12T01:28:07.139Z,24.80
2017-08-12T01:29:19.435Z,24.80
2017-08-12T01:30:32.029Z,24.80
2017-08-12T01:31:44.196Z,24.80
2017-08-12T01:32:56.564Z,24.69
2017-08-12T01:34:09.101Z,24.69
2017-08-12T01:35:24.972Z,24.69
2017-08-12T01:36:37.128Z,24.69
2017-08-12T01:37:49.620Z,24.69
2017-08-12T01:39:02.239Z,24.69
2017-08-12T01:40:14.753Z,24.69
2017-08-12T01:41:26.972Z,24.69
2017-08-12T01:42:39.313Z,24.69
2017-08-12T01:43:51.507Z,24.69
2017-08-12T01:45:03.747Z,24.69
2017-08-12T01:46:16.232Z,24.69
2017-08-12T01:47:28.499Z,24.69
2017-08-12T01:48:40.854Z,24.69
2017-08-12T01:49:53.145Z,24.69
2017-08-12T01:51:05.517Z,24.69
2017-08-12T01:52:17.800Z,24.69
2017-08-12T01:53:30.017Z,24.69
2017-08-12T01:54:42.281Z,24.69
2017-08-12T01:55:58.176Z,24.69
2017-08-12T01:57:10.473Z,24.69
2017-08-12T01:58:22.682Z,24.69
2017-08-12T01:59:35.100Z,24.69
2017-08-12T02:00:47.259Z,24.69
2017-08-12T02:01:59.680Z,24.69
2017-08-12T02:03:12.080Z,24.69
2017-08-12T02:04:24.439Z,24.69
2017-08-12T02:05:41.160Z,24.69
2017-08-12T02:06:53.573Z,24.58
2017-08-12T02:08:06.160Z,24.69
2017-08-12T02:09:18.417Z,24.69
2017-08-12T02:10:30.664Z,24.69
2017-08-12T02:11:43.244Z,24.58
2017-08-12T02:12:55.486Z,24.58
2017-08-12T02:14:07.768Z,24.58
2017-08-12T02:15:45.100Z,24.58
2017-08-12T02:16:57.347Z,24.69
2017-08-12T02:18:09.849Z,24.58
2017-08-12T02:19:22.349Z,24.58
2017-08-12T02:20:34.746Z,24.58
2017-08-12T02:21:47.006Z,24.58
2017-08-12T02:22:59.293Z,24.58
2017-08-12T02:24:11.807Z,24.58
2017-08-12T02:25:28.053Z,24.58
2017-08-12T02:26:40.432Z,24.58
2017-08-12T02:27:52.970Z,24.58
2017-08-12T02:29:05.305Z,24.58
2017-08-12T02:30:17.564Z,24.58
2017-08-12T02:31:30.118Z,24.58
2017-08-12T02:32:42.437Z,24.58
2017-08-12T02:33:54.709Z,24.58
2017-08-12T02:35:07.190Z,24.58
2017-08-12T02:36:19.669Z,24.58
2017-08-12T02:37:32.122Z,24.58
2017-08-12T02:38:44.436Z,24.58
2017-08-12T02:39:56.657Z,24.58
2017-08-12T02:41:09.259Z,24.47
2017-08-12T02:42:21.511Z,24.58
2017-08-12T02:43:33.836Z,24.47
2017-08-12T02:44:46.059Z,24.47
2017-08-12T02:46:02.382Z,24.58
2017-08-12T02:47:14.770Z,24.47
2017-08-12T02:48:27.076Z,24.47
2017-08-12T02:49:39.655Z,24.47
2017-08-12T02:50:52.173Z,24.47
2017-08-12T02:52:04.575Z,24.47
2017-08-12T02:53:16.885Z,24.47
2017-08-12T02:54:29.405Z,24.47
2017-08-12T02:55:45.502Z,24.47
2017-08-12T02:56:57.926Z,24.47
2017-08-12T02:58:10.514Z,24.47
2017-08-12T02:59:22.937Z,24.47
2017-08-12T03:00:35.215Z,24.47
2017-08-12T03:01:47.448Z,24.47
2017-08-12T03:03:00.084Z,24.47
2017-08-12T03:04:12.523Z,24.47
2017-08-12T03:05:28.681Z,24.47
2017-08-12T03:06:41.227Z,24.47
2017-08-12T03:07:53.730Z,24.47
2017-08-12T03:09:05.848Z,24.47
2017-08-12T03:10:18.217Z,24.47
2017-08-12T03:11:30.667Z,24.47
2017-08-12T03:12:43.278Z,24.47
2017-08-12T03:13:55.529Z,24.47
2017-08-12T03:15:07.852Z,24.47
2017-08-12T03:16:20.144Z,24.47
2017-08-12T03:17:32.780Z,24.47
2017-08-12T03:18:44.933Z,24.36
2017-08-12T03:19:57.452Z,24.47
2017-08-12T03:21:09.713Z,24.36
2017-08-12T03:22:22.128Z,24.47
2017-08-12T03:23:34.425Z,24.47
2017-08-12T03:24:47.022Z,24.47
2017-08-12T03:26:03.006Z,24.47
2017-08-12T03:27:15.333Z,24.47
2017-08-12T03:28:27.708Z,24.47
2017-08-12T03:29:40.080Z,24.36
2017-08-12T03:30:52.662Z,24.47
2017-08-12T03:32:05.029Z,24.47
2017-08-12T03:33:17.451Z,24.47
2017-08-12T03:34:29.903Z,24.36
2017-08-12T03:35:45.789Z,24.36
2017-08-12T03:36:58.265Z,24.36
2017-08-12T03:38:10.596Z,24.36
2017-08-12T03:39:23.165Z,24.36
2017-08-12T03:40:35.782Z,24.36
2017-08-12T03:41:47.967Z,24.36
2017-08-12T03:43:00.474Z,24.36
2017-08-12T03:44:12.896Z,24.36
2017-08-12T03:45:28.664Z,24.36
2017-08-12T03:46:40.981Z,24.36
2017-08-12T03:47:53.242Z,24.36
2017-08-12T03:49:05.565Z,24.36
2017-08-12T03:50:18.086Z,24.36
2017-08-12T03:51:30.206Z,24.36
2017-08-12T03:52:42.783Z,24.36
2017-08-12T03:53:55.189Z,24.36
2017-08-12T03:55:07.497Z,24.36
2017-08-12T03:56:19.754Z,24.36
2017-08-12T03:57:32.292Z,24.36
2017-08-12T03:58:44.617Z,24.36
2017-08-12T03:59:56.990Z,24.36
2017-08-12T04:01:09.105Z,24.36
2017-08-12T04:02:21.681Z,24.36
2017-08-12T04:03:34.216Z,24.36
2017-08-12T04:04:46.661Z,24.36
2017-08-12T04:06:02.332Z,24.36
2017-08-12T04:07:14.609Z,24.36
2017-08-12T04:08:27.178Z,24.36
2017-08-12T04:09:39.722Z,24.36
2017-08-12T04:10:52.065Z,24.36
2017-08-12T04:12:04.361Z,24.36
2017-08-12T04:13:16.750Z,24.36
2017-08-12T04:14:29.345Z,24.36
2017-08-12T04:15:45.773Z,24.36
2017-08-12T04:16:58.257Z,24.36
2017-08-12T04:18:10.518Z,24.36
2017-08-12T04:19:23.029Z,24.36
2017-08-12T04:20:35.367Z,24.36
2017-08-12T04:21:47.926Z,24.36
2017-08-12T04:23:00.230Z,24.36
2017-08-12T04:24:12.681Z,24.37
2017-08-12T04:25:29.094Z,24.37
2017-08-12T04:26:41.533Z,24.36
2017-08-12T04:27:53.930Z,24.36
2017-08-12T04:29:06.204Z,24.37
2017-08-12T04:30:18.768Z,24.36
2017-08-12T04:31:31.086Z,24.37
2017-08-12T04:32:43.381Z,24.36
2017-08-12T04:33:55.859Z,24.37
2017-08-12T04:35:08.362Z,24.37
2017-08-12T04:36:20.841Z,24.37
2017-08-12T04:38:00.713Z,24.37
2017-08-12T04:39:12.936Z,24.37
2017-08-12T04:40:25.082Z,24.37
2017-08-12T04:41:37.590Z,24.37
2017-08-12T04:42:50.143Z,24.25
2017-08-12T04:44:02.443Z,24.25
2017-08-12T04:45:17.833Z,24.37
2017-08-12T04:46:30.245Z,24.25
2017-08-12T04:47:42.716Z,24.37
2017-08-12T04:48:55.048Z,24.37
2017-08-12T04:50:07.338Z,24.25
2017-08-12T04:51:19.732Z,24.37
2017-08-12T04:52:32.097Z,24.25
2017-08-12T04:53:44.551Z,24.37
2017-08-12T04:54:57.083Z,24.37
2017-08-12T04:56:09.245Z,24.25
2017-08-12T04:57:21.592Z,24.25
2017-08-12T04:58:34.072Z,24.25
2017-08-12T04:59:46.399Z,24.25
2017-08-12T05:00:58.832Z,24.25
2017-08-12T05:02:11.252Z,24.25
2017-08-12T05:03:23.683Z,24.25
2017-08-12T05:04:36.162Z,24.26
2017-08-12T05:05:51.482Z,24.26
2017-08-12T05:07:03.824Z,24.26
2017-08-12T05:08:16.019Z,24.26
2017-08-12T05:09:28.374Z,24.26
2017-08-12T05:10:40.573Z,24.26
2017-08-12T05:11:53.025Z,24.26
2017-08-12T05:13:05.216Z,24.26
2017-08-12T05:14:17.659Z,24.26
2017-08-12T05:15:33.976Z,24.26
2017-08-12T05:16:46.141Z,24.26
2017-08-12T05:17:58.579Z,24.26
2017-08-12T05:19:10.806Z,24.26
2017-08-12T05:20:23.209Z,24.26
2017-08-12T05:21:35.811Z,24.26
2017-08-12T05:22:47.930Z,24.26
2017-08-12T05:24:00.308Z,24.26
2017-08-12T05:25:15.878Z,24.26
2017-08-12T05:26:27.978Z,24.26
2017-08-12T05:27:40.323Z,24.26
2017-08-12T05:28:52.845Z,24.26
2017-08-12T05:30:05.119Z,24.14
2017-08-12T05:31:17.374Z,24.26
2017-08-12T05:32:29.683Z,24.26
2017-08-12T05:33:42.179Z,24.26
2017-08-12T05:34:54.511Z,24.26
2017-08-12T05:36:10.435Z,24.26
2017-08-12T05:37:22.637Z,24.26
2017-08-12T05:38:34.903Z,24.26
2017-08-12T05:39:47.334Z,24.26
2017-08-12T05:40:59.687Z,24.14
2017-08-12T05:42:12.236Z,24.26
2017-08-12T05:43:24.700Z,24.26
2017-08-12T05:44:37.209Z,24.15
2017-08-12T05:45:52.791Z,24.14
2017-08-12T05:47:05.207Z,24.15
2017-08-12T05:48:17.759Z,24.14
2017-08-12T05:49:30.126Z,24.26
2017-08-12T05:50:42.291Z,24.15
2017-08-12T05:51:54.847Z,24.26
2017-08-12T05:53:07.324Z,24.26
2017-08-12T05:54:19.572Z,24.15
2017-08-12T05:55:35.108Z,24.15
2017-08-12T05:56:47.613Z,24.26
2017-08-12T05:58:00.008Z,24.26
2017-08-12T05:59:12.525Z,24.15
2017-08-12T06:00:24.837Z,24.15
2017-08-12T06:01:37.279Z,24.15
2017-08-12T06:02:49.509Z,24.15
2017-08-12T06:04:01.806Z,24.15
2017-08-12T06:05:17.395Z,24.15
2017-08-12T06:06:30.044Z,24.26
2017-08-12T06:07:42.422Z,24.15
2017-08-12T06:08:54.620Z,24.15
2017-08-12T06:10:07.008Z,24.15
2017-08-12T06:11:19.576Z,24.26
2017-08-12T06:12:31.858Z,24.26
2017-08-12T06:13:44.357Z,24.26
2017-08-12T06:14:56.594Z,24.15
2017-08-12T06:16:09.172Z,24.15
2017-08-12T06:17:21.311Z,24.26
2017-08-12T06:18:33.686Z,24.15
2017-08-12T06:19:46.283Z,24.15
2017-08-12T06:20:58.716Z,24.26
2017-08-12T06:22:11.290Z,24.26
2017-08-12T06:23:23.666Z,24.26
2017-08-12T06:24:36.140Z,24.15
2017-08-12T06:25:51.989Z,24.15
2017-08-12T06:27:04.394Z,24.15
2017-08-12T06:28:16.688Z,24.15
2017-08-12T06:29:29.249Z,24.15
2017-08-12T06:30:41.537Z,24.15
2017-08-12T06:31:53.699Z,24.15
2017-08-12T06:33:06.019Z,24.15
2017-08-12T06:34:18.435Z,24.15
2017-08-12T06:35:34.189Z,24.15
2017-08-12T06:36:46.430Z,24.15
2017-08-12T06:37:58.889Z,24.15
2017-08-12T06:39:11.213Z,24.15
2017-08-12T06:40:23.753Z,24.15
2017-08-12T06:41:36.249Z,24.15
2017-08-12T06:42:48.764Z,24.15
2017-08-12T06:44:01.207Z,24.15
2017-08-12T06:45:17.469Z,24.15
2017-08-12T06:46:29.922Z,24.15
2017-08-12T06:47:42.373Z,24.15
2017-08-12T06:48:54.607Z,24.15
2017-08-12T06:50:06.864Z,24.15
2017-08-12T06:51:19.275Z,24.15
2017-08-12T06:52:31.458Z,24.15
2017-08-12T06:53:43.730Z,24.15
2017-08-12T06:54:56.232Z,24.15
2017-08-12T06:56:35.498Z,24.15
2017-08-12T06:57:47.628Z,24.15
2017-08-12T06:59:00.081Z,24.15
2017-08-12T07:00:12.518Z,24.15
2017-08-12T07:01:25.058Z,24.15
2017-08-12T07:02:37.431Z,24.15
2017-08-12T07:03:49.797Z,24.15
2017-08-12T07:05:02.260Z,24.15
2017-08-12T07:06:14.613Z,24.15
2017-08-12T07:07:27.129Z,24.15
2017-08-12T07:08:39.348Z,24.15
2017-08-12T07:09:52.072Z,24.15
2017-08-12T07:11:04.493Z,24.15
2017-08-12T07:12:16.678Z,24.15
2017-08-12T07:13:28.800Z,24.15
2017-08-12T07:14:41.319Z,24.15
2017-08-12T07:15:57.085Z,24.15
2017-08-12T07:17:09.614Z,24.15
2017-08-12T07:18:22.256Z,24.15
2017-08-12T07:19:34.655Z,24.15
2017-08-12T07:20:47.267Z,24.15
2017-08-12T07:21:59.451Z,24.15
2017-08-12T07:23:11.683Z,24.15
2017-08-12T07:24:24.013Z,24.15
2017-08-12T07:25:39.539Z,24.15
2017-08-12T07:26:51.697Z,24.15
2017-08-12T07:28:04.025Z,24.15
2017-08-12T07:29:16.580Z,24.15
2017-08-12T07:30:28.886Z,24.15
2017-08-12T07:31:41.364Z,24.15
2017-08-12T07:32:53.680Z,24.15
2017-08-12T07:34:06.081Z,24.15
2017-08-12T07:35:21.853Z,24.15
2017-08-12T07:40:50.222Z,24.15
2017-08-12T07:43:21.627Z,24.04
2017-08-12T07:45:56.372Z,24.04
2017-08-12T07:52:16.048Z,24.04
2017-08-12T07:56:04.615Z,24.04
2017-08-12T07:57:17.186Z,24.04
2017-08-12T08:09:56.532Z,24.04
2017-08-12T08:11:09.219Z,24.04
2017-08-12T08:12:21.703Z,24.04
2017-08-12T08:13:34.027Z,24.04
2017-08-12T08:14:46.403Z,24.04
2017-08-12T08:16:02.008Z,24.04
2017-08-12T08:17:14.256Z,24.04
2017-08-12T08:19:43.538Z,24.04
2017-08-12T08:20:56.083Z,24.04
2017-08-12T08:22:08.414Z,24.05
2017-08-12T08:23:20.991Z,24.05
2017-08-12T08:24:33.685Z,24.05
2017-08-12T08:25:49.517Z,24.05
2017-08-12T08:27:01.823Z,24.05
2017-08-12T08:28:14.130Z,23.94
2017-08-12T08:29:26.418Z,24.05
2017-08-12T08:30:38.811Z,24.05
2017-08-12T08:31:51.249Z,23.94
2017-08-12T08:33:03.517Z,23.94
2017-08-12T08:34:15.631Z,23.94
2017-08-12T08:35:29.422Z,24.05
2017-08-12T08:36:41.869Z,23.94
2017-08-12T08:37:54.509Z,23.94
2017-08-12T08:39:06.763Z,23.94
2017-08-12T08:40:18.930Z,23.94
2017-08-12T08:41:31.398Z,23.94
2017-08-12T08:42:43.686Z,23.94
2017-08-12T08:43:56.044Z,23.94
2017-08-12T08:45:08.305Z,23.94
2017-08-12T08:46:20.651Z,23.94
2017-08-12T08:47:32.956Z,23.94
2017-08-12T08:48:45.252Z,23.94
2017-08-12T08:49:57.529Z,23.94
2017-08-12T08:51:09.816Z,23.94
2017-08-12T08:52:22.158Z,23.94
2017-08-12T08:53:34.630Z,23.94
2017-08-12T08:54:47.004Z,23.94
2017-08-12T08:56:03.366Z,23.94
2017-08-12T08:57:16.067Z,24.05
2017-08-12T08:58:28.676Z,24.05
2017-08-12T08:59:41.102Z,24.05
2017-08-12T09:00:53.743Z,24.05
2017-08-12T09:02:06.447Z,24.16
2017-08-12T09:03:19.000Z,24.16
2017-08-12T09:04:31.363Z,24.16
2017-08-12T09:05:47.566Z,24.16
2017-08-12T09:06:59.998Z,24.16
2017-08-12T09:08:12.527Z,24.27
2017-08-12T09:09:25.469Z,24.27
2017-08-12T09:10:38.059Z,24.37
2017-08-12T09:11:50.619Z,24.49
2017-08-12T09:13:03.236Z,24.48
2017-08-12T09:14:16.022Z,24.69
2017-08-12T09:15:32.429Z,24.69
2017-08-12T09:16:45.267Z,24.79
2017-08-12T09:17:57.926Z,24.79
2017-08-12T09:19:10.642Z,24.90
2017-08-12T09:20:23.295Z,24.78
2017-08-12T09:21:35.735Z,24.78
2017-08-12T09:22:48.362Z,24.80
2017-08-12T09:24:01.154Z,24.78
2017-08-12T09:25:17.855Z,24.78
2017-08-12T09:26:30.832Z,24.79
2017-08-12T09:27:43.776Z,24.90
2017-08-12T09:28:56.514Z,24.89
2017-08-12T09:30:09.070Z,24.89
2017-08-12T09:31:21.841Z,25.02
2017-08-12T09:32:34.577Z,24.90
2017-08-12T09:33:47.190Z,24.89
2017-08-12T09:35:00.473Z,24.89
2017-08-12T09:36:13.023Z,24.90
2017-08-12T09:37:25.798Z,25.00
2017-08-12T09:38:38.657Z,25.01
2017-08-12T09:39:51.337Z,25.01
2017-08-12T09:41:04.023Z,25.10
2017-08-12T09:42:44.519Z,25.22
2017-08-12T09:43:57.179Z,25.32
2017-08-12T09:45:09.770Z,25.31
2017-08-12T09:46:22.462Z,25.30
2017-08-12T09:47:35.139Z,25.41
2017-08-12T09:48:47.827Z,25.30
2017-08-12T09:50:00.577Z,25.30
2017-08-12T09:51:13.363Z,25.42
2017-08-12T09:52:26.126Z,25.41
2017-08-12T09:53:39.381Z,25.32
2017-08-12T09:54:52.008Z,25.41
2017-08-12T09:56:08.254Z,25.52
2017-08-12T09:57:20.937Z,25.52
2017-08-12T09:58:33.644Z,25.51
2017-08-12T09:59:46.246Z,25.51
2017-08-12T10:00:59.020Z,25.62
2017-08-12T10:02:11.468Z,25.62
2017-08-12T10:03:24.462Z,25.62
2017-08-12T10:04:37.128Z,25.62
2017-08-12T10:05:52.931Z,25.73
2017-08-12T10:07:06.073Z,25.84
2017-08-12T10:08:18.674Z,25.83
2017-08-12T10:09:31.244Z,25.82
2017-08-12T10:10:44.028Z,25.83
2017-08-12T10:11:56.684Z,25.82
2017-08-12T10:13:09.314Z,25.82
2017-08-12T10:14:22.205Z,25.93
2017-08-12T10:15:38.203Z,25.93
2017-08-12T10:16:51.013Z,25.92
2017-08-12T10:18:03.880Z,25.92
2017-08-12T10:19:16.336Z,25.92
2017-08-12T10:20:28.816Z,26.03
2017-08-12T10:21:41.647Z,26.03
2017-08-12T10:22:54.142Z,26.65
2017-08-12T10:24:06.650Z,26.65
2017-08-12T10:25:22.474Z,26.64
2017-08-12T10:26:35.085Z,26.64
2017-08-12T10:27:47.749Z,26.64
2017-08-12T10:29:00.273Z,26.64
2017-08-12T10:30:12.862Z,26.71
2017-08-12T10:31:25.640Z,26.71
2017-08-12T10:32:38.199Z,26.71
2017-08-12T10:33:50.581Z,26.80
2017-08-12T10:35:03.425Z,26.78
2017-08-12T10:36:15.927Z,26.78
2017-08-12T10:37:28.326Z,26.79
2017-08-12T10:38:40.976Z,26.86
2017-08-12T10:39:53.721Z,26.89
2017-08-12T10:41:06.263Z,26.85
2017-08-12T10:42:18.820Z,26.86
2017-08-12T10:43:31.360Z,26.86
2017-08-12T10:44:43.822Z,26.78
2017-08-12T10:46:00.074Z,26.78
2017-08-12T10:47:12.948Z,26.78
2017-08-12T10:48:25.844Z,26.86
2017-08-12T10:49:24.987Z,26.87
2017-08-12T10:51:28.777Z,27.14
2017-08-12T11:01:45.846Z,27.16
2017-08-12T11:12:02.303Z,26.86
2017-08-12T11:22:20.550Z,26.85
2017-08-12T11:32:37.897Z,26.79
2017-08-12T11:43:17.169Z,26.76
2017-08-12T11:53:34.179Z,26.76
2017-08-12T12:03:53.626Z,26.77
2017-08-12T12:14:10.191Z,26.76
2017-08-12T12:24:27.375Z,26.85
2017-08-12T12:34:43.521Z,26.01
2017-08-12T12:45:00.085Z,25.82
2017-08-12T12:55:17.367Z,25.62
2017-08-12T13:05:34.468Z,25.41
2017-08-12T13:15:51.749Z,25.32
2017-08-12T13:26:09.003Z,25.11
2017-08-12T13:36:26.451Z,25.01
2017-08-12T13:46:43.638Z,25.03
2017-08-12T13:57:00.934Z,25.45
2017-08-12T14:07:18.096Z,25.67
2017-08-12T14:17:35.415Z,25.77
2017-08-12T14:27:53.008Z,26.09
2017-08-12T14:38:09.726Z,26.99
2017-08-12T14:48:26.772Z,27.16
2017-08-12T14:58:43.267Z,27.25
2017-08-12T15:09:00.521Z,27.31
2017-08-12T15:19:17.938Z,27.37
2017-08-12T15:39:50.185Z,27.47
2017-08-12T15:50:07.486Z,27.49
2017-08-12T16:00:24.501Z,27.30
2017-08-12T16:10:41.760Z,27.29
2017-08-12T16:20:58.860Z,27.20
2017-08-12T16:26:31.121Z,27.10
2017-08-12T16:30:31.252Z,27.11
2017-08-12T16:33:14.484Z,27.10
2017-08-12T16:34:44.922Z,27.11
2017-08-12T16:45:01.670Z,27.10
2017-08-12T16:55:18.681Z,26.94
2017-08-12T17:05:35.657Z,27.27
2017-08-12T17:15:52.277Z,27.20
2017-08-12T17:26:09.097Z,27.05
2017-08-12T17:36:25.363Z,26.79
2017-08-12T17:46:41.708Z,26.80
2017-08-12T17:56:59.198Z,26.88
2017-08-12T18:07:16.052Z,26.87
2017-08-12T18:17:32.229Z,27.22
2017-08-12T18:19:46.244Z,27.45
2017-08-12T18:34:20.570Z,27.5
2017-08-12T18:55:21.316Z,27.8
2017-08-12T19:05:37.814Z,27.8
2017-08-12T19:15:55.039Z,27.8
2017-08-12T19:26:12.181Z,27.9
2017-08-12T19:37:13.789Z,28.0
2017-08-12T19:42:11.333Z,28.0
2017-08-12T19:52:28.142Z,28.0
2017-08-12T20:02:44.394Z,27.7
2017-08-12T20:13:01.531Z,27.4
2017-08-12T20:23:18.101Z,27.2
2017-08-12T20:33:35.235Z,27.1
2017-08-12T20:44:16.611Z,26.8
2017-08-12T20:54:33.303Z,26.7
2017-08-12T21:04:50.320Z,26.0
2017-08-12T21:15:07.431Z,25.9
2017-08-12T21:25:24.524Z,25.8
2017-08-12T21:35:42.043Z,25.6
2017-08-12T21:45:59.400Z,25.6
2017-08-12T21:56:16.224Z,25.5
2017-08-12T22:06:33.786Z,25.4
2017-08-12T22:16:50.766Z,25.3
2017-08-12T22:27:07.791Z,25.3
2017-08-12T22:37:24.156Z,25.2
2017-08-12T22:47:41.366Z,25.1
2017-08-12T22:57:58.735Z,25.1
2017-08-12T23:08:15.896Z,25.1
2017-08-12T23:18:33.356Z,25.0
2017-08-12T23:28:50.216Z,24.9
2017-08-12T23:39:07.618Z,24.9
2017-08-12T23:49:25.174Z,24.9
2017-08-12T23:59:41.897Z,24.8
